sensor_id;sensor_type;location;lat;lon;timestamp;pressure;altitude;pressure_sealevel;temperature;humidity
706;BME280;21234;48.690;9.016;2023-03-04T00:00:06;96587.78;;;0.83;83.14
706;BME280;21234;48.690;9.016;2023-03-04T00:02:33;96583.06;;;1.00;83.03
706;BME280;21234;48.690;9.016;2023-03-04T00:05:00;96586.09;;;0.82;83.43
706;BME280;21234;48.690;9.016;2023-03-04T00:07:27;96588.25;;;0.87;82.93
706;BME280;21234;48.690;9.016;2023-03-04T00:09:54;96583.34;;;0.90;83.58
706;BME280;21234;48.690;9.016;2023-03-04T00:12:21;96592.66;;;0.80;83.47
706;BME280;21234;48.690;9.016;2023-03-04T00:14:49;96591.56;;;0.89;83.45
706;BME280;21234;48.690;9.016;2023-03-04T00:17:16;96594.50;;;0.79;82.96
706;BME280;21234;48.690;9.016;2023-03-04T00:19:42;96588.53;;;0.92;82.89
706;BME280;21234;48.690;9.016;2023-03-04T00:22:09;96583.25;;;0.84;82.62
706;BME280;21234;48.690;9.016;2023-03-04T00:24:36;96587.53;;;0.70;83.49
706;BME280;21234;48.690;9.016;2023-03-04T00:27:03;96579.81;;;0.75;83.69
706;BME280;21234;48.690;9.016;2023-03-04T00:29:29;96582.56;;;0.67;84.03
706;BME280;21234;48.690;9.016;2023-03-04T00:31:57;96579.16;;;0.73;83.74
706;BME280;21234;48.690;9.016;2023-03-04T00:34:24;96584.97;;;0.77;83.98
706;BME280;21234;48.690;9.016;2023-03-04T00:36:51;96580.81;;;0.59;83.73
706;BME280;21234;48.690;9.016;2023-03-04T00:39:17;96585.78;;;0.62;84.34
706;BME280;21234;48.690;9.016;2023-03-04T00:41:44;96582.16;;;0.55;83.94
706;BME280;21234;48.690;9.016;2023-03-04T00:44:11;96579.97;;;0.59;84.49
706;BME280;21234;48.690;9.016;2023-03-04T00:46:37;96582.16;;;0.55;84.05
706;BME280;21234;48.690;9.016;2023-03-04T00:49:05;96582.81;;;0.57;83.72
706;BME280;21234;48.690;9.016;2023-03-04T00:51:32;96584.50;;;0.58;83.77
706;BME280;21234;48.690;9.016;2023-03-04T00:53:59;96586.50;;;0.56;83.78
706;BME280;21234;48.690;9.016;2023-03-04T00:56:26;96586.41;;;0.50;83.23
706;BME280;21234;48.690;9.016;2023-03-04T00:58:53;96582.25;;;0.24;84.20
706;BME280;21234;48.690;9.016;2023-03-04T01:01:19;96579.94;;;0.21;84.32
706;BME280;21234;48.690;9.016;2023-03-04T01:03:46;96582.34;;;0.08;85.26
706;BME280;21234;48.690;9.016;2023-03-04T01:06:14;96571.78;;;0.15;85.40
706;BME280;21234;48.690;9.016;2023-03-04T01:08:41;96572.44;;;0.17;84.85
706;BME280;21234;48.690;9.016;2023-03-04T01:11:08;96578.13;;;0.14;85.57
706;BME280;21234;48.690;9.016;2023-03-04T01:13:34;96573.44;;;0.16;84.89
706;BME280;21234;48.690;9.016;2023-03-04T01:16:01;96578.09;;;0.22;85.37
706;BME280;21234;48.690;9.016;2023-03-04T01:18:29;96575.34;;;0.07;85.41
706;BME280;21234;48.690;9.016;2023-03-04T01:20:56;96570.97;;;0.14;85.71
706;BME280;21234;48.690;9.016;2023-03-04T01:23:24;96575.34;;;0.07;85.57
706;BME280;21234;48.690;9.016;2023-03-04T01:25:51;96575.00;;;0.10;86.11
706;BME280;21234;48.690;9.016;2023-03-04T01:28:17;96566.56;;;-0.02;86.72
706;BME280;21234;48.690;9.016;2023-03-04T01:30:44;96565.91;;;-0.04;85.94
706;BME280;21234;48.690;9.016;2023-03-04T01:33:11;96567.66;;;-0.19;87.16
706;BME280;21234;48.690;9.016;2023-03-04T01:35:38;96567.75;;;-0.04;86.33
706;BME280;21234;48.690;9.016;2023-03-04T01:38:04;96565.00;;;-0.19;87.09
706;BME280;21234;48.690;9.016;2023-03-04T01:40:32;96567.22;;;-0.30;88.02
706;BME280;21234;48.690;9.016;2023-03-04T01:42:59;96570.06;;;-0.32;87.71
706;BME280;21234;48.690;9.016;2023-03-04T01:45:34;96567.28;;;-0.39;88.33
706;BME280;21234;48.690;9.016;2023-03-04T01:48:01;96567.63;;;-0.42;88.66
706;BME280;21234;48.690;9.016;2023-03-04T01:50:31;96571.47;;;-0.44;88.48
706;BME280;21234;48.690;9.016;2023-03-04T01:52:58;96563.94;;;-0.41;88.16
706;BME280;21234;48.690;9.016;2023-03-04T01:55:25;96559.78;;;-0.43;88.70
706;BME280;21234;48.690;9.016;2023-03-04T01:57:54;96561.94;;;-0.39;88.96
706;BME280;21234;48.690;9.016;2023-03-04T02:00:32;96558.59;;;-0.41;88.29
706;BME280;21234;48.690;9.016;2023-03-04T02:03:02;96556.78;;;-0.40;88.02
706;BME280;21234;48.690;9.016;2023-03-04T02:05:31;96556.69;;;-0.32;87.40
706;BME280;21234;48.690;9.016;2023-03-04T02:07:58;96556.13;;;-0.42;87.38
706;BME280;21234;48.690;9.016;2023-03-04T02:10:26;96555.91;;;-0.32;87.23
706;BME280;21234;48.690;9.016;2023-03-04T02:12:54;96550.06;;;-0.36;87.05
706;BME280;21234;48.690;9.016;2023-03-04T02:15:22;96550.31;;;-0.23;86.16
706;BME280;21234;48.690;9.016;2023-03-04T02:17:49;96562.84;;;-0.23;86.11
706;BME280;21234;48.690;9.016;2023-03-04T02:20:27;96552.50;;;-0.26;86.01
706;BME280;21234;48.690;9.016;2023-03-04T02:23:03;96549.63;;;-0.48;86.98
706;BME280;21234;48.690;9.016;2023-03-04T02:25:36;96552.47;;;-0.49;87.64
706;BME280;21234;48.690;9.016;2023-03-04T02:28:05;96550.31;;;-0.54;88.17
706;BME280;21234;48.690;9.016;2023-03-04T02:30:32;96544.94;;;-0.46;88.39
706;BME280;21234;48.690;9.016;2023-03-04T02:32:59;96547.75;;;-0.39;87.79
706;BME280;21234;48.690;9.016;2023-03-04T02:35:26;96543.28;;;-0.47;88.15
706;BME280;21234;48.690;9.016;2023-03-04T02:37:53;96551.63;;;-0.50;87.67
706;BME280;21234;48.690;9.016;2023-03-04T02:40:23;96548.97;;;-0.50;87.58
706;BME280;21234;48.690;9.016;2023-03-04T02:42:51;96543.25;;;-0.39;86.82
706;BME280;21234;48.690;9.016;2023-03-04T02:45:41;96543.91;;;-0.37;86.61
706;BME280;21234;48.690;9.016;2023-03-04T02:48:09;96547.75;;;-0.39;86.38
706;BME280;21234;48.690;9.016;2023-03-04T02:50:39;96544.81;;;-0.52;86.18
706;BME280;21234;48.690;9.016;2023-03-04T02:53:06;96541.09;;;-0.43;86.65
706;BME280;21234;48.690;9.016;2023-03-04T02:55:33;96552.41;;;-0.33;86.17
706;BME280;21234;48.690;9.016;2023-03-04T02:57:59;96549.53;;;-0.31;85.60
706;BME280;21234;48.690;9.016;2023-03-04T03:00:26;96546.22;;;-0.33;84.72
706;BME280;21234;48.690;9.016;2023-03-04T03:02:55;96550.34;;;-0.31;84.66
706;BME280;21234;48.690;9.016;2023-03-04T03:05:23;96547.88;;;-0.32;84.88
706;BME280;21234;48.690;9.016;2023-03-04T03:07:50;96540.88;;;-0.33;85.30
706;BME280;21234;48.690;9.016;2023-03-04T03:10:17;96553.50;;;-0.27;85.56
706;BME280;21234;48.690;9.016;2023-03-04T03:12:44;96545.31;;;-0.26;85.69
706;BME280;21234;48.690;9.016;2023-03-04T03:15:11;96544.66;;;-0.28;85.74
706;BME280;21234;48.690;9.016;2023-03-04T03:17:38;96550.25;;;-0.38;85.31
706;BME280;21234;48.690;9.016;2023-03-04T03:20:08;96544.59;;;-0.43;85.53
706;BME280;21234;48.690;9.016;2023-03-04T03:22:35;96545.91;;;-0.39;86.27
706;BME280;21234;48.690;9.016;2023-03-04T03:25:01;96545.94;;;-0.47;86.46
706;BME280;21234;48.690;9.016;2023-03-04T03:27:28;96556.81;;;-0.48;86.41
706;BME280;21234;48.690;9.016;2023-03-04T03:29:55;96553.81;;;-0.53;86.64
706;BME280;21234;48.690;9.016;2023-03-04T03:32:22;96547.28;;;-0.43;85.93
706;BME280;21234;48.690;9.016;2023-03-04T03:34:49;96539.44;;;-0.44;86.21
706;BME280;21234;48.690;9.016;2023-03-04T03:37:17;96542.97;;;-0.52;86.74
706;BME280;21234;48.690;9.016;2023-03-04T03:39:43;96543.63;;;-0.50;87.13
706;BME280;21234;48.690;9.016;2023-03-04T03:42:10;96548.66;;;-0.55;86.99
706;BME280;21234;48.690;9.016;2023-03-04T03:44:37;96553.50;;;-0.58;87.07
706;BME280;21234;48.690;9.016;2023-03-04T03:47:03;96552.47;;;-0.49;86.67
706;BME280;21234;48.690;9.016;2023-03-04T03:49:30;96545.81;;;-0.53;86.87
706;BME280;21234;48.690;9.016;2023-03-04T03:51:57;96545.13;;;-0.47;86.41
706;BME280;21234;48.690;9.016;2023-03-04T03:54:25;96542.78;;;-0.50;86.22
706;BME280;21234;48.690;9.016;2023-03-04T03:56:52;96543.44;;;-0.48;86.07
706;BME280;21234;48.690;9.016;2023-03-04T03:59:18;96536.31;;;-0.56;86.29
706;BME280;21234;48.690;9.016;2023-03-04T04:01:45;96540.78;;;-0.48;86.87
706;BME280;21234;48.690;9.016;2023-03-04T04:04:12;96545.56;;;-0.66;87.41
706;BME280;21234;48.690;9.016;2023-03-04T04:06:38;96536.81;;;-0.60;87.39
706;BME280;21234;48.690;9.016;2023-03-04T04:09:05;96542.47;;;-0.55;87.23
706;BME280;21234;48.690;9.016;2023-03-04T04:11:33;96544.56;;;-0.65;87.56
706;BME280;21234;48.690;9.016;2023-03-04T04:14:00;96547.41;;;-0.67;87.28
706;BME280;21234;48.690;9.016;2023-03-04T04:16:26;96540.69;;;-0.63;87.11
706;BME280;21234;48.690;9.016;2023-03-04T04:18:53;96548.06;;;-0.65;87.07
706;BME280;21234;48.690;9.016;2023-03-04T04:21:20;96543.25;;;-0.78;87.83
706;BME280;21234;48.690;9.016;2023-03-04T04:23:46;96544.28;;;-0.87;88.40
706;BME280;21234;48.690;9.016;2023-03-04T04:26:13;96547.47;;;-0.91;88.38
706;BME280;21234;48.690;9.016;2023-03-04T04:28:41;96553.69;;;-0.99;87.75
706;BME280;21234;48.690;9.016;2023-03-04T04:31:08;96538.31;;;-0.97;87.92
706;BME280;21234;48.690;9.016;2023-03-04T04:33:35;96542.03;;;-1.06;88.11
706;BME280;21234;48.690;9.016;2023-03-04T04:36:02;96547.97;;;-0.96;87.41
706;BME280;21234;48.690;9.016;2023-03-04T04:38:29;96545.88;;;-1.17;88.53
706;BME280;21234;48.690;9.016;2023-03-04T04:40:56;96549.72;;;-1.27;89.40
706;BME280;21234;48.690;9.016;2023-03-04T04:43:24;96544.56;;;-1.29;88.74
706;BME280;21234;48.690;9.016;2023-03-04T04:45:52;96540.94;;;-1.44;90.58
706;BME280;21234;48.690;9.016;2023-03-04T04:48:18;96547.44;;;-1.55;91.91
706;BME280;21234;48.690;9.016;2023-03-04T04:50:45;96544.63;;;-1.61;92.32
706;BME280;21234;48.690;9.016;2023-03-04T04:53:12;96543.31;;;-1.65;93.23
706;BME280;21234;48.690;9.016;2023-03-04T04:55:39;96547.94;;;-1.59;93.04
706;BME280;21234;48.690;9.016;2023-03-04T04:58:06;96546.13;;;-1.43;91.78
706;BME280;21234;48.690;9.016;2023-03-04T05:00:33;96557.09;;;-1.46;90.96
706;BME280;21234;48.690;9.016;2023-03-04T05:03:01;96556.09;;;-1.37;90.40
706;BME280;21234;48.690;9.016;2023-03-04T05:05:27;96559.59;;;-1.36;89.87
706;BME280;21234;48.690;9.016;2023-03-04T05:07:54;96552.72;;;-1.22;88.54
706;BME280;21234;48.690;9.016;2023-03-04T05:10:21;96554.22;;;-1.20;88.63
706;BME280;21234;48.690;9.016;2023-03-04T05:12:47;96551.41;;;-1.26;88.53
706;BME280;21234;48.690;9.016;2023-03-04T05:15:15;96550.28;;;-1.32;88.69
706;BME280;21234;48.690;9.016;2023-03-04T05:17:42;96551.09;;;-1.31;89.31
706;BME280;21234;48.690;9.016;2023-03-04T05:20:11;96547.72;;;-1.25;88.95
706;BME280;21234;48.690;9.016;2023-03-04T05:22:37;96541.59;;;-1.42;89.73
706;BME280;21234;48.690;9.016;2023-03-04T05:25:04;96550.63;;;-1.43;90.33
706;BME280;21234;48.690;9.016;2023-03-04T05:27:32;96549.13;;;-1.54;90.69
706;BME280;21234;48.690;9.016;2023-03-04T05:29:59;96550.78;;;-1.53;89.62
706;BME280;21234;48.690;9.016;2023-03-04T05:32:26;96554.28;;;-1.60;89.10
706;BME280;21234;48.690;9.016;2023-03-04T05:34:53;96557.28;;;-1.39;88.65
706;BME280;21234;48.690;9.016;2023-03-04T05:37:22;96555.78;;;-1.42;87.88
706;BME280;21234;48.690;9.016;2023-03-04T05:39:48;96558.44;;;-1.58;88.34
706;BME280;21234;48.690;9.016;2023-03-04T05:42:15;96554.63;;;-1.47;87.86
706;BME280;21234;48.690;9.016;2023-03-04T05:44:42;96557.78;;;-1.36;87.73
706;BME280;21234;48.690;9.016;2023-03-04T05:47:08;96556.28;;;-1.54;87.74
706;BME280;21234;48.690;9.016;2023-03-04T05:49:35;96558.81;;;-1.69;87.28
706;BME280;21234;48.690;9.016;2023-03-04T05:52:02;96558.81;;;-1.69;87.46
706;BME280;21234;48.690;9.016;2023-03-04T05:54:30;96558.97;;;-1.71;87.43
706;BME280;21234;48.690;9.016;2023-03-04T05:56:56;96563.13;;;-1.68;88.21
706;BME280;21234;48.690;9.016;2023-03-04T05:59:23;96561.31;;;-1.76;87.96
706;BME280;21234;48.690;9.016;2023-03-04T06:01:50;96560.78;;;-1.79;88.31
706;BME280;21234;48.690;9.016;2023-03-04T06:04:17;96568.63;;;-1.70;87.22
706;BME280;21234;48.690;9.016;2023-03-04T06:06:43;96567.13;;;-1.72;86.88
706;BME280;21234;48.690;9.016;2023-03-04T06:09:11;96568.28;;;-1.83;87.49
706;BME280;21234;48.690;9.016;2023-03-04T06:11:40;96566.28;;;-1.89;88.04
706;BME280;21234;48.690;9.016;2023-03-04T06:14:06;96568.81;;;-1.71;87.80
706;BME280;21234;48.690;9.016;2023-03-04T06:16:33;96588.13;;;-1.69;87.38
706;BME280;21234;48.690;9.016;2023-03-04T06:19:00;96586.44;;;-1.78;88.48
706;BME280;21234;48.690;9.016;2023-03-04T06:21:26;96585.13;;;-1.74;88.43
706;BME280;21234;48.690;9.016;2023-03-04T06:23:53;96580.28;;;-1.54;87.56
706;BME280;21234;48.690;9.016;2023-03-04T06:26:20;96580.44;;;-1.56;87.78
706;BME280;21234;48.690;9.016;2023-03-04T06:28:48;96583.97;;;-1.63;89.73
706;BME280;21234;48.690;9.016;2023-03-04T06:31:14;96595.47;;;-1.63;89.41
706;BME280;21234;48.690;9.016;2023-03-04T06:33:41;96598.47;;;-1.66;89.46
706;BME280;21234;48.690;9.016;2023-03-04T06:36:08;96594.09;;;-1.59;89.31
706;BME280;21234;48.690;9.016;2023-03-04T06:38:34;96602.78;;;-1.57;89.63
706;BME280;21234;48.690;9.016;2023-03-04T06:41:06;96604.59;;;-1.49;89.71
706;BME280;21234;48.690;9.016;2023-03-04T06:43:33;96602.44;;;-1.46;89.15
706;BME280;21234;48.690;9.016;2023-03-04T06:46:01;96605.63;;;-1.34;89.74
706;BME280;21234;48.690;9.016;2023-03-04T06:48:28;96614.94;;;-1.30;89.26
706;BME280;21234;48.690;9.016;2023-03-04T06:50:55;96615.59;;;-1.28;89.35
706;BME280;21234;48.690;9.016;2023-03-04T06:53:22;96611.75;;;-1.25;88.92
706;BME280;21234;48.690;9.016;2023-03-04T06:55:48;96613.06;;;-1.13;88.92
706;BME280;21234;48.690;9.016;2023-03-04T06:58:15;96610.75;;;-1.16;88.61
706;BME280;21234;48.690;9.016;2023-03-04T07:00:42;96614.75;;;-1.20;89.11
706;BME280;21234;48.690;9.016;2023-03-04T07:03:11;96617.41;;;-1.04;88.57
706;BME280;21234;48.690;9.016;2023-03-04T07:05:38;96614.91;;;-1.06;88.92
706;BME280;21234;48.690;9.016;2023-03-04T07:08:05;96622.38;;;-0.93;89.08
706;BME280;21234;48.690;9.016;2023-03-04T07:10:32;96616.38;;;-0.95;89.21
706;BME280;21234;48.690;9.016;2023-03-04T07:12:59;96615.69;;;-0.97;89.75
706;BME280;21234;48.690;9.016;2023-03-04T07:15:25;96618.69;;;-0.92;89.74
706;BME280;21234;48.690;9.016;2023-03-04T07:17:52;96620.53;;;-0.92;90.56
706;BME280;21234;48.690;9.016;2023-03-04T07:20:21;96617.84;;;-0.84;90.83
706;BME280;21234;48.690;9.016;2023-03-04T07:22:48;96626.38;;;-0.89;92.29
706;BME280;21234;48.690;9.016;2023-03-04T07:25:15;96628.25;;;-0.97;93.92
706;BME280;21234;48.690;9.016;2023-03-04T07:27:42;96630.75;;;-1.04;95.10
706;BME280;21234;48.690;9.016;2023-03-04T07:30:10;96636.03;;;-0.96;95.64
706;BME280;21234;48.690;9.016;2023-03-04T07:32:37;96639.03;;;-0.91;96.15
706;BME280;21234;48.690;9.016;2023-03-04T07:35:04;96637.34;;;-0.76;95.85
706;BME280;21234;48.690;9.016;2023-03-04T07:37:32;96639.03;;;-0.83;95.81
706;BME280;21234;48.690;9.016;2023-03-04T07:39:59;96638.03;;;-0.82;95.99
706;BME280;21234;48.690;9.016;2023-03-04T07:42:26;96646.22;;;-0.83;96.67
706;BME280;21234;48.690;9.016;2023-03-04T07:44:52;96649.53;;;-0.73;96.90
706;BME280;21234;48.690;9.016;2023-03-04T07:47:20;96643.88;;;-0.78;96.94
706;BME280;21234;48.690;9.016;2023-03-04T07:49:47;96652.66;;;-0.61;97.14
706;BME280;21234;48.690;9.016;2023-03-04T07:52:13;96649.19;;;-0.70;96.68
706;BME280;21234;48.690;9.016;2023-03-04T07:54:41;96651.03;;;-0.71;97.03
706;BME280;21234;48.690;9.016;2023-03-04T07:57:08;96654.38;;;-0.69;97.19
706;BME280;21234;48.690;9.016;2023-03-04T07:59:35;96656.38;;;-0.71;97.37
706;BME280;21234;48.690;9.016;2023-03-04T08:02:02;96658.56;;;-0.82;97.41
706;BME280;21234;48.690;9.016;2023-03-04T08:04:28;96663.06;;;-0.91;98.29
706;BME280;21234;48.690;9.016;2023-03-04T08:06:55;96662.22;;;-0.83;98.54
706;BME280;21234;48.690;9.016;2023-03-04T08:09:22;96670.41;;;-0.77;98.35
706;BME280;21234;48.690;9.016;2023-03-04T08:11:50;96669.91;;;-0.88;98.64
706;BME280;21234;48.690;9.016;2023-03-04T08:14:17;96668.91;;;-0.79;99.04
706;BME280;21234;48.690;9.016;2023-03-04T08:16:44;96667.22;;;-0.80;98.74
706;BME280;21234;48.690;9.016;2023-03-04T08:19:11;96662.41;;;-0.85;98.49
706;BME280;21234;48.690;9.016;2023-03-04T08:21:38;96668.22;;;-0.81;99.15
706;BME280;21234;48.690;9.016;2023-03-04T08:24:05;96671.56;;;-0.71;99.14
706;BME280;21234;48.690;9.016;2023-03-04T08:26:34;96672.06;;;-0.76;99.33
706;BME280;21234;48.690;9.016;2023-03-04T08:29:04;96671.72;;;-0.73;99.55
706;BME280;21234;48.690;9.016;2023-03-04T08:31:32;96672.34;;;-0.54;99.43
706;BME280;21234;48.690;9.016;2023-03-04T08:33:59;96677.34;;;-0.51;98.97
706;BME280;21234;48.690;9.016;2023-03-04T08:36:25;96671.97;;;-0.43;98.95
706;BME280;21234;48.690;9.016;2023-03-04T08:38:53;96680.44;;;-0.31;98.43
706;BME280;21234;48.690;9.016;2023-03-04T08:41:19;96681.47;;;-0.32;97.91
706;BME280;21234;48.690;9.016;2023-03-04T08:43:47;96683.84;;;-0.46;97.52
706;BME280;21234;48.690;9.016;2023-03-04T08:46:15;96686.53;;;-0.54;98.11
706;BME280;21234;48.690;9.016;2023-03-04T08:48:42;96688.00;;;-0.51;98.44
706;BME280;21234;48.690;9.016;2023-03-04T08:51:11;96684.66;;;-0.45;98.33
706;BME280;21234;48.690;9.016;2023-03-04T08:53:38;96686.44;;;-0.29;98.59
706;BME280;21234;48.690;9.016;2023-03-04T08:56:06;96689.56;;;-0.18;98.05
706;BME280;21234;48.690;9.016;2023-03-04T08:58:33;96697.66;;;-0.34;97.41
706;BME280;21234;48.690;9.016;2023-03-04T09:01:01;96694.50;;;-0.38;96.94
706;BME280;21234;48.690;9.016;2023-03-04T09:03:29;96695.50;;;-0.39;97.48
706;BME280;21234;48.690;9.016;2023-03-04T09:05:56;96693.50;;;-0.45;97.57
706;BME280;21234;48.690;9.016;2023-03-04T09:08:23;96697.69;;;-0.42;97.22
706;BME280;21234;48.690;9.016;2023-03-04T09:10:52;96695.00;;;-0.42;97.21
706;BME280;21234;48.690;9.016;2023-03-04T09:13:19;96696.50;;;-0.40;97.00
706;BME280;21234;48.690;9.016;2023-03-04T09:15:47;96693.16;;;-0.33;96.51
706;BME280;21234;48.690;9.016;2023-03-04T09:18:15;96698.63;;;-0.27;96.24
706;BME280;21234;48.690;9.016;2023-03-04T09:20:43;96698.97;;;-0.30;96.14
706;BME280;21234;48.690;9.016;2023-03-04T09:23:11;96696.44;;;-0.23;95.84
706;BME280;21234;48.690;9.016;2023-03-04T09:25:38;96713.78;;;-0.19;95.89
706;BME280;21234;48.690;9.016;2023-03-04T09:28:05;96706.94;;;-0.14;94.92
706;BME280;21234;48.690;9.016;2023-03-04T09:30:32;96703.41;;;-0.06;95.16
706;BME280;21234;48.690;9.016;2023-03-04T09:32:59;96702.56;;;-0.07;94.80
706;BME280;21234;48.690;9.016;2023-03-04T09:35:26;96706.41;;;-0.09;94.92
706;BME280;21234;48.690;9.016;2023-03-04T09:37:55;96703.91;;;-0.11;94.95
706;BME280;21234;48.690;9.016;2023-03-04T09:40:25;96694.72;;;-0.08;95.04
706;BME280;21234;48.690;9.016;2023-03-04T09:42:55;96695.03;;;-0.03;94.82
706;BME280;21234;48.690;9.016;2023-03-04T09:45:28;96700.22;;;-0.02;94.15
706;BME280;21234;48.690;9.016;2023-03-04T09:47:57;96701.31;;;0.04;94.67
706;BME280;21234;48.690;9.016;2023-03-04T09:50:25;96696.53;;;-0.01;93.93
706;BME280;21234;48.690;9.016;2023-03-04T09:53:05;96691.59;;;0.11;92.52
706;BME280;21234;48.690;9.016;2023-03-04T09:55:34;96698.00;;;0.33;91.74
706;BME280;21234;48.690;9.016;2023-03-04T09:58:08;96690.09;;;0.40;91.55
706;BME280;21234;48.690;9.016;2023-03-04T10:00:39;96695.91;;;0.51;90.37
706;BME280;21234;48.690;9.016;2023-03-04T10:03:16;96692.16;;;0.60;90.05
706;BME280;21234;48.690;9.016;2023-03-04T10:05:49;96690.31;;;0.61;88.67
706;BME280;21234;48.690;9.016;2023-03-04T10:08:35;96690.06;;;0.71;88.22
706;BME280;21234;48.690;9.016;2023-03-04T10:11:10;96689.00;;;0.80;88.03
706;BME280;21234;48.690;9.016;2023-03-04T10:13:43;96695.66;;;0.84;86.32
706;BME280;21234;48.690;9.016;2023-03-04T10:16:17;96694.31;;;0.65;85.51
706;BME280;21234;48.690;9.016;2023-03-04T10:18:48;96685.84;;;0.76;85.80
706;BME280;21234;48.690;9.016;2023-03-04T10:21:21;96691.97;;;0.85;86.37
706;BME280;21234;48.690;9.016;2023-03-04T10:23:51;96695.66;;;0.84;86.07
706;BME280;21234;48.690;9.016;2023-03-04T10:26:20;96688.28;;;0.86;85.47
706;BME280;21234;48.690;9.016;2023-03-04T10:28:48;96687.94;;;0.89;84.74
706;BME280;21234;48.690;9.016;2023-03-04T10:31:19;96681.59;;;1.05;84.44
706;BME280;21234;48.690;9.016;2023-03-04T10:33:48;96682.66;;;1.18;83.20
706;BME280;21234;48.690;9.016;2023-03-04T10:36:33;96679.72;;;1.28;82.31
706;BME280;21234;48.690;9.016;2023-03-04T10:39:06;96683.59;;;1.40;82.00
706;BME280;21234;48.690;9.016;2023-03-04T10:41:34;96690.75;;;1.62;82.42
706;BME280;21234;48.690;9.016;2023-03-04T10:44:03;96683.91;;;1.89;79.55
706;BME280;21234;48.690;9.016;2023-03-04T10:46:31;96683.44;;;1.86;79.57
706;BME280;21234;48.690;9.016;2023-03-04T10:48:58;96688.25;;;1.76;78.82
706;BME280;21234;48.690;9.016;2023-03-04T10:51:26;96675.59;;;1.84;78.98
706;BME280;21234;48.690;9.016;2023-03-04T10:53:56;96677.41;;;1.98;79.08
706;BME280;21234;48.690;9.016;2023-03-04T10:56:34;96671.38;;;1.96;77.63
706;BME280;21234;48.690;9.016;2023-03-04T11:02:14;96673.19;;;1.89;77.23
706;BME280;21234;48.690;9.016;2023-03-04T11:04:42;96670.19;;;1.99;77.20
706;BME280;21234;48.690;9.016;2023-03-04T11:07:15;96670.66;;;2.02;77.04
706;BME280;21234;48.690;9.016;2023-03-04T11:09:43;96670.19;;;1.99;75.68
706;BME280;21234;48.690;9.016;2023-03-04T11:12:13;96666.56;;;2.07;76.79
706;BME280;21234;48.690;9.016;2023-03-04T11:14:43;96663.16;;;2.13;75.67
706;BME280;21234;48.690;9.016;2023-03-04T11:17:22;96662.50;;;2.25;76.63
706;BME280;21234;48.690;9.016;2023-03-04T11:19:53;96650.75;;;2.26;75.54
706;BME280;21234;48.690;9.016;2023-03-04T11:22:23;96648.19;;;2.40;75.03
706;BME280;21234;48.690;9.016;2023-03-04T11:24:56;96652.19;;;2.29;75.03
706;BME280;21234;48.690;9.016;2023-03-04T11:27:33;96652.13;;;2.22;74.78
706;BME280;21234;48.690;9.016;2023-03-04T11:30:20;96652.03;;;2.16;75.28
706;BME280;21234;48.690;9.016;2023-03-04T11:32:52;96643.94;;;2.30;75.37
706;BME280;21234;48.690;9.016;2023-03-04T11:35:26;96639.41;;;2.31;73.45
706;BME280;21234;48.690;9.016;2023-03-04T11:38:00;96639.59;;;2.29;74.26
706;BME280;21234;48.690;9.016;2023-03-04T11:40:34;96641.44;;;2.29;75.19
706;BME280;21234;48.690;9.016;2023-03-04T11:43:10;96642.69;;;2.26;74.89
706;BME280;21234;48.690;9.016;2023-03-04T11:45:58;96644.09;;;2.22;74.42
706;BME280;21234;48.690;9.016;2023-03-04T11:48:38;96638.78;;;2.29;74.52
706;BME280;21234;48.690;9.016;2023-03-04T11:51:17;96649.38;;;2.16;75.03
706;BME280;21234;48.690;9.016;2023-03-04T11:53:56;96635.41;;;2.20;74.57
706;BME280;21234;48.690;9.016;2023-03-04T11:56:33;96629.28;;;2.26;74.90
706;BME280;21234;48.690;9.016;2023-03-04T11:59:29;96627.81;;;2.24;74.50
706;BME280;21234;48.690;9.016;2023-03-04T12:02:14;96626.63;;;2.12;74.86
706;BME280;21234;48.690;9.016;2023-03-04T12:05:10;96620.25;;;2.13;75.74
706;BME280;21234;48.690;9.016;2023-03-04T12:07:52;96615.03;;;2.26;72.42
706;BME280;21234;48.690;9.016;2023-03-04T12:10:25;96614.88;;;2.34;71.43
706;BME280;21234;48.690;9.016;2023-03-04T12:13:20;96606.19;;;2.32;73.00
706;BME280;21234;48.690;9.016;2023-03-04T12:15:58;96605.06;;;2.41;70.86
706;BME280;21234;48.690;9.016;2023-03-04T12:18:42;96597.34;;;2.53;72.76
706;BME280;21234;48.690;9.016;2023-03-04T12:21:26;96596.25;;;2.47;71.76
706;BME280;21234;48.690;9.016;2023-03-04T12:24:23;96597.72;;;2.50;72.10
706;BME280;21234;48.690;9.016;2023-03-04T12:26:57;96587.38;;;2.47;72.36
706;BME280;21234;48.690;9.016;2023-03-04T12:29:33;96577.69;;;2.74;72.08
706;BME280;21234;48.690;9.016;2023-03-04T12:32:11;96583.03;;;2.95;71.21
706;BME280;21234;48.690;9.016;2023-03-04T12:35:01;96566.69;;;3.18;69.41
706;BME280;21234;48.690;9.016;2023-03-04T12:37:47;96571.59;;;3.14;68.57
706;BME280;21234;48.690;9.016;2023-03-04T12:40:26;96571.44;;;2.94;68.61
706;BME280;21234;48.690;9.016;2023-03-04T12:43:21;96565.47;;;2.92;70.38
706;BME280;21234;48.690;9.016;2023-03-04T12:45:58;96561.13;;;2.91;69.86
706;BME280;21234;48.690;9.016;2023-03-04T12:48:31;96558.00;;;2.88;69.25
706;BME280;21234;48.690;9.016;2023-03-04T12:51:11;96552.56;;;2.81;69.95
706;BME280;21234;48.690;9.016;2023-03-04T12:53:48;96555.19;;;3.02;69.08
706;BME280;21234;48.690;9.016;2023-03-04T12:56:24;96547.13;;;3.02;68.62
706;BME280;21234;48.690;9.016;2023-03-04T12:58:52;96552.69;;;3.01;68.13
706;BME280;21234;48.690;9.016;2023-03-04T13:01:23;96553.72;;;3.00;66.64
706;BME280;21234;48.690;9.016;2023-03-04T13:03:57;96550.91;;;3.43;67.28
706;BME280;21234;48.690;9.016;2023-03-04T13:06:33;96546.06;;;3.31;66.22
706;BME280;21234;48.690;9.016;2023-03-04T13:09:05;96546.16;;;3.10;65.99
706;BME280;21234;48.690;9.016;2023-03-04T13:11:51;96548.66;;;3.12;66.40
706;BME280;21234;48.690;9.016;2023-03-04T13:14:33;96542.63;;;3.85;65.41
706;BME280;21234;48.690;9.016;2023-03-04T13:17:05;96543.81;;;4.70;62.49
706;BME280;21234;48.690;9.016;2023-03-04T13:19:51;96540.06;;;4.38;62.39
706;BME280;21234;48.690;9.016;2023-03-04T13:22:49;96535.19;;;3.87;64.34
706;BME280;21234;48.690;9.016;2023-03-04T13:25:39;96540.44;;;3.54;65.25
706;BME280;21234;48.690;9.016;2023-03-04T13:28:16;96537.69;;;3.48;66.27
706;BME280;21234;48.690;9.016;2023-03-04T13:31:16;96536.03;;;3.47;66.72
706;BME280;21234;48.690;9.016;2023-03-04T13:34:00;96536.22;;;3.45;70.24
706;BME280;21234;48.690;9.016;2023-03-04T13:36:34;96539.03;;;3.24;66.20
706;BME280;21234;48.690;9.016;2023-03-04T13:39:35;96546.41;;;3.15;68.45
706;BME280;21234;48.690;9.016;2023-03-04T13:42:03;96541.81;;;3.09;69.93
706;BME280;21234;48.690;9.016;2023-03-04T13:44:59;96544.94;;;3.13;69.90